John Septimus Roe Primary Cross Country
Skip Navigation Links
Results
Details
13 Jun 2014
HyperLink
Page 1 of 3 (122 items)
[1]23
Pos
Race No
Fav
Share
Name
Time
Category
Cat Pos
Gender
Gen Pos
Team
JSRcampus
Pace
1249Toby GATENBY00:04:56Y031Male1NEWBMB4:56 min/km
2250Tomas GIANOLI00:04:58Y032Male2DURHMB4:58 min/km
33Deng AROK00:05:04Y033Male3NEWBBB5:04 min/km
415Izayah KEAN00:05:06Y034Male4ROEBBB5:06 min/km
5264Danica REWELL00:05:15Y031Female1ROEBMB5:15 min/km
6257Kaan KADI00:05:17Y035Male5NEWBMB5:17 min/km
7282Harrison FARMER00:05:17Y036Male6DURHMB5:17 min/km
8267Amy TUCKER00:05:23Y032Female2KELMMB5:23 min/km
9276Harrison CHRISTENSEN00:05:23Y037Male7KELMMB5:23 min/km
10260Luke MUNSON00:05:25Y038Male8NEWBMB5:25 min/km
1144Jak MAHONEY00:05:27Y039Male9KELMBB5:27 min/km
12246Oliver COCKROFT00:05:32Y0310Male10ROEBMB5:32 min/km
1312Cadence GREY00:05:33Y033Female3ROEBBB5:33 min/km
14278Joel CROXFORD00:05:34Y0311Male11SANDMB5:34 min/km
151Elisha ABRAHAM00:05:36Y0312Male12PARMBB5:36 min/km
1626Christopher TOWIE00:05:37Y0313Male13NEWBBB5:37 min/km
17259Sean MULLINS00:05:44Y0314Male14SANDMB5:44 min/km
1828Max VAN NOORD00:05:45Y0315Male15PARMBB5:44 min/km
19277Samuel COOPER00:05:45Y0316Male16PARMMB5:44 min/km
2023Jayde SMITH00:05:46Y034Female4SANDBB5:46 min/km
2145Blair MAITLAND00:05:50Y0317Male17NEWBBB5:50 min/km
22261Megan O'BRIEN00:05:53Y035Female5ROEBMB5:53 min/km
238Tyler CALVERT00:05:54Y0318Male18NEWBBB5:54 min/km
24273Kyan BOYD00:05:59Y0319Male19KELMMB5:58 min/km
2550Madison PHELAN00:06:02Y036Female6NEWBBB6:02 min/km
2658Rohan VISKOVICH00:06:04Y0320Male20PARMBB6:03 min/km
2752Karan SHARMA00:06:05Y0321Male21SANDBB6:05 min/km
28243Lauren BROWN00:06:06Y037Female7SANDMB6:06 min/km
29244Hamish BUCHANAN00:06:09Y0322Male22DURHMB6:09 min/km
30280Aaron DMELLO00:06:14Y0323Male23KELMMB6:14 min/km
31269Jethro WATTS00:06:18Y0324Male24SANDMB6:18 min/km
3248Sienna NICHOLAIDIS00:06:19Y038Female8DURHBB6:19 min/km
33268Russell WALTERS00:06:19Y0325Male25KELMMB6:19 min/km
34271Reid WITTS00:06:20Y0326Male26SANDMB6:20 min/km
35281Jasmine EARP00:06:20Y039Female9NEWBMB6:20 min/km
36298Eleni TOUFEXIS00:06:21Y0310Female10KELMMB6:21 min/km
37292Summer LEE00:06:28Y0311Female11SANDMB6:27 min/km
38265Ana SEKULOVSKI00:06:29Y0312Female12NEWBMB6:29 min/km
39286Jarvis HICKS00:06:29Y0327Male27DURHMB6:29 min/km
402Emily AI00:06:31Y0313Female13DURHBB6:31 min/km
41255Zora HLAING00:06:33Y0314Female14PARMMB6:33 min/km
42254Thomas HITCH00:06:34Y0328Male28PARMMB6:34 min/km
43263Darian PERKINS00:06:34Y0329Male29ROEBMB6:34 min/km
4417Harrison LAWRENCE00:06:37Y0330Male30DURHBB6:37 min/km
45285Angela HEWITT00:06:39Y0315Female15NEWBMB6:39 min/km
4611Kade GALEOTTI00:06:44Y0331Male31DURHBB6:44 min/km
4757Eric VAN NOORD00:06:44Y0332Male32PARMBB6:44 min/km
4813Gil HEPWORTH00:06:48Y0333Male33NEWBBB6:48 min/km
4931Brandon BAGULEY00:06:51Y0334Male34KELMBB6:51 min/km
50275Ethan CHEN00:06:55Y0335Male35NEWBMB6:55 min/km
Page 1 of 3 (122 items)
[1]23
fb

HyperLink Copyright (c) G Vincent, 2018